OOCL Long Beach — VRYO4 — position and weather

sailwx.info

Track history (hours):
 
Tides and Currents Weather Stations Pressure Air Temp Water Temp Dewpoint Dewpoint Depression Visibility Wind Speed Wind Dir Waves Ship Positions

OOCL Long Beach

Last reported at 2016-Feb-11 19:03 UTC. Time now 2016-Feb-11 21:15 UTC.
Position N 22°56' E 119°57'.

Length 323 m; beam 42.8 m; draft 14.5 m.

Type: Cargo ship. MMSI: 477316000.

Date/timePositionNaut miles runAvg speedWind from/ knotsBaromVisibWave heightAir tempDewpointWater temp
2016-Feb-11 19:03N 22°56' E 119°57'1121.4
2016-Feb-11 18:33N 22°47' E 120°03'1817.9
2016-Feb-11 17:33N 22°33' E 120°14'4 4.2
2016-Feb-11 16:33N 22°34' E 120°18'0 0.1
2016-Feb-11 15:28N 22°34' E 120°18'0 0.0
2016-Feb-11 14:28N 22°34' E 120°18'0 0.0
2016-Feb-11 13:22N 22°34' E 120°18'0 0.0
2016-Feb-11 12:28N 22°34' E 120°18'0 0.0
2016-Feb-11 11:28N 22°34' E 120°18'0 0.0
2016-Feb-11 10:28N 22°34' E 120°18'0 0.0
2016-Feb-11 09:28N 22°34' E 120°18'0 0.0
2016-Feb-11 08:28N 22°34' E 120°18'0 0.1
2016-Feb-11 07:28N 22°34' E 120°18'0 0.1
2016-Feb-11 06:28N 22°34' E 120°18'0 0.0
2016-Feb-11 05:28N 22°34' E 120°18'0 0.0
2016-Feb-11 04:22N 22°34' E 120°18'0 0.0
2016-Feb-11 03:28N 22°34' E 120°18'0 0.0
2016-Feb-11 02:28N 22°34' E 120°18'0 0.0
2016-Feb-11 01:28N 22°34' E 120°18'0 0.0
2016-Feb-11 00:28N 22°34' E 120°18'0 0.3
2016-Feb-10 23:33N 22°34' E 120°19'5 5.0
2016-Feb-10 22:33N 22°32' E 120°14'1414.0
2016-Feb-10 21:33N 22°30' E 119°59'2019.5
2016-Feb-10 20:33N 22°28' E 119°38'27419.6
2016-Feb-10 06:33N 22°18' E 114°41'2813.8
2016-Feb-10 04:31N 22°34' E 114°16'0 0.2
2016-Feb-10 03:25N 22°34' E 114°16'0 0.0
2016-Feb-10 02:31N 22°34' E 114°16'0 0.0
2016-Feb-10 01:19N 22°34' E 114°16'0 0.0
2016-Feb-10 00:07N 22°34' E 114°16'0 0.0
2016-Feb-09 23:31N 22°34' E 114°16'0 0.0
2016-Feb-09 22:13N 22°34' E 114°16'0 0.0
2016-Feb-09 21:31N 22°34' E 114°16'0 0.0
2016-Feb-09 20:31N 22°34' E 114°16'0 0.0
2016-Feb-09 16:31N 22°34' E 114°16'0 0.0
2016-Feb-09 15:25N 22°34' E 114°16'0 0.0
2016-Feb-09 14:31N 22°34' E 114°16'0 0.0
2016-Feb-09 13:19N 22°34' E 114°16'0 0.0
2016-Feb-09 10:13N 22°34' E 114°16'0 0.0
2016-Feb-09 08:25N 22°34' E 114°16'0 0.0
2016-Feb-09 06:13N 22°34' E 114°16'0 0.2
2016-Feb-09 05:33N 22°34' E 114°16'15 7.5
2016-Feb-09 03:32N 22°25' E 114°29'1110.9
2016-Feb-09 02:31N 22°14' E 114°29'1312.8
2016-Feb-09 01:31N 22°07' E 114°17'1410.8
2016-Feb-09 00:14N 22°16' E 114°06'4 6.3
2016-Feb-08 23:33N 22°21' E 114°07'0 0.3
2016-Feb-08 22:30N 22°21' E 114°07'0 0.0
2016-Feb-08 21:33N 22°21' E 114°07'0 0.0
2016-Feb-08 20:33N 22°21' E 114°07'0 0.0
2016-Feb-08 19:33N 22°21' E 114°07'0 0.0
2016-Feb-08 18:33N 22°21' E 114°07'0 0.0
2016-Feb-08 17:24N 22°21' E 114°07'0 0.0
2016-Feb-08 16:15N 22°21' E 114°07'0 0.0
2016-Feb-08 13:33N 22°21' E 114°07'0 0.0
2016-Feb-08 12:12N 22°21' E 114°07'0 0.0
2016-Feb-08 10:21N 22°21' E 114°07'0 0.0
2016-Feb-08 09:24N 22°21' E 114°07'0 0.0
2016-Feb-08 08:24N 22°21' E 114°07'0 0.0
2016-Feb-08 07:30N 22°21' E 114°07'0 0.0
2016-Feb-08 06:18N 22°21' E 114°07'0 0.0
2016-Feb-08 05:33N 22°21' E 114°07'0 0.0
2016-Feb-08 04:33N 22°21' E 114°07'0 0.0
2016-Feb-08 03:33N 22°21' E 114°07'0 0.0
2016-Feb-08 02:33N 22°21' E 114°07'1 0.6
2016-Feb-08 01:33N 22°20' E 114°07'9 8.6
2016-Feb-08 00:33N 22°21' E 113°58'9 9.2
2016-Feb-07 23:33N 22°28' E 113°52'4 1.9
2016-Feb-07 21:21N 22°32' E 113°51'0 0.0
2016-Feb-07 20:33N 22°32' E 113°51'0 0.0
2016-Feb-07 19:33N 22°32' E 113°51'0 0.0
2016-Feb-07 17:33N 22°32' E 113°51'0 0.0
2016-Feb-07 16:21N 22°32' E 113°51'0 0.0
2016-Feb-07 00:19N 22°32' E 113°51'15 5.3
2016-Feb-06 21:27N 22°21' E 114°02'1112.1
2016-Feb-06 20:33N 22°13' E 114°10'6 6.4
2016-Feb-06 19:33N 22°08' E 114°15'1111.3
2016-Feb-06 18:33N 22°09' E 114°27'20511.3
2016-Feb-06 00:27N 23°36' E 117°49'1516.5
2016-Feb-05 23:32N 23°47' E 118°00'1616.3
2016-Feb-05 22:33N 23°58' E 118°14'1514.8
2016-Feb-05 21:33N 24°11' E 118°22'1414.0
2016-Feb-05 20:33N 24°20' E 118°10'1111.2
2016-Feb-05 19:33N 24°27' E 118°00'0 0.3
2016-Feb-05 18:26N 24°27' E 118°00'0 0.0
2016-Feb-05 17:33N 24°27' E 118°00'0 0.0
2016-Feb-05 16:33N 24°27' E 118°00'0 0.0
2016-Feb-05 15:31N 24°27' E 118°00'0 0.0
2016-Feb-05 14:34N 24°27' E 118°00'0 0.0
2016-Feb-05 13:33N 24°27' E 118°00'0 0.0
2016-Feb-05 12:33N 24°27' E 118°00'0 0.0
2016-Feb-05 11:33N 24°27' E 118°00'0 0.1
2016-Feb-05 10:34N 24°27' E 118°00'0 0.0
2016-Feb-05 09:33N 24°27' E 118°00'0 0.1
2016-Feb-05 08:33N 24°27' E 118°00'0 0.0
2016-Feb-05 07:33N 24°27' E 118°00'0 0.0
2016-Feb-05 06:33N 24°27' E 118°00'0 0.1
2016-Feb-05 05:33N 24°27' E 118°00'0 0.1
2016-Feb-05 04:33N 24°27' E 118°00'0 0.1
2016-Feb-05 03:33N 24°27' E 118°00'0 0.1
2016-Feb-05 02:34N 24°27' E 118°00'0 0.0
2016-Feb-05 01:33N 24°27' E 118°00'0 0.0
2016-Feb-05 00:33N 24°27' E 118°00'0 0.0
2016-Feb-04 23:33N 24°27' E 118°00'8 8.3
2016-Feb-04 22:33N 24°22' E 118°08'10 9.8
2016-Feb-04 21:33N 24°15' E 118°15'6 6.3
2016-Feb-04 20:33N 24°14' E 118°22'2 2.1
2016-Feb-04 19:32N 24°12' E 118°20'3 1.1
2016-Feb-04 16:32N 24°14' E 118°23'2 1.9
2016-Feb-04 15:19N 24°12' E 118°23'9812.6
2016-Feb-04 07:33N 22°60' E 119°35'1716.5
2016-Feb-04 06:32N 22°50' E 119°50'1616.1
2016-Feb-04 05:33N 22°41' E 120°03'8 8.3
2016-Feb-04 04:33N 22°33' E 120°08'1 1.5
2016-Feb-04 03:33N 22°35' E 120°07'4 4.4
2016-Feb-04 02:33N 22°33' E 120°11'8 7.6
2016-Feb-04 01:33N 22°33' E 120°20'2 1.5
2016-Feb-04 00:29N 22°34' E 120°18'0 0.0
2016-Feb-03 23:23N 22°34' E 120°18'0 0.0
2016-Feb-03 22:23N 22°34' E 120°18'0 0.1
2016-Feb-03 21:29N 22°34' E 120°18'0 0.1
2016-Feb-03 20:29N 22°34' E 120°18'0 0.0
2016-Feb-03 19:29N 22°34' E 120°18'0 0.0
2016-Feb-03 18:29N 22°34' E 120°18'0 0.0
2016-Feb-03 17:23N 22°34' E 120°18'0 0.0
2016-Feb-03 16:29N 22°34' E 120°18'0 0.0
2016-Feb-03 15:29N 22°34' E 120°18'0 0.0
2016-Feb-03 14:29N 22°34' E 120°18'0 0.0
2016-Feb-03 13:27N 22°34' E 120°18'2 2.2
2016-Feb-03 12:34N 22°33' E 120°17'7 7.1
2016-Feb-03 11:33N 22°27' E 120°12'1211.7
2016-Feb-03 10:34N 22°16' E 120°14'  
Track history (hours):
 
Tides and Currents Weather Stations Pressure Air Temp Water Temp Dewpoint Dewpoint Depression Visibility Wind Speed Wind Dir Waves Ship Positions

OOCL Long Beach

Last reported at 2016-Feb-11 19:03 UTC. Time now 2016-Feb-11 21:15 UTC.
Position N 22°56' E 119°57'.

Length 323 m; beam 42.8 m; draft 14.5 m.

Type: Cargo ship. MMSI: 477316000.

Date/timePositionNaut miles runAvg speedWind from/ knotsBaromVisibWave heightAir tempDewpointWater temp
2016-Feb-11 19:03N 22°56' E 119°57'1121.4
2016-Feb-11 18:33N 22°47' E 120°03'1817.9
2016-Feb-11 17:33N 22°33' E 120°14'4 4.2
2016-Feb-11 16:33N 22°34' E 120°18'0 0.1
2016-Feb-11 15:28N 22°34' E 120°18'0 0.0
2016-Feb-11 14:28N 22°34' E 120°18'0 0.0
2016-Feb-11 13:22N 22°34' E 120°18'0 0.0
2016-Feb-11 12:28N 22°34' E 120°18'0 0.0
2016-Feb-11 11:28N 22°34' E 120°18'0 0.0
2016-Feb-11 10:28N 22°34' E 120°18'0 0.0
2016-Feb-11 09:28N 22°34' E 120°18'0 0.0
2016-Feb-11 08:28N 22°34' E 120°18'0 0.1
2016-Feb-11 07:28N 22°34' E 120°18'0 0.1
2016-Feb-11 06:28N 22°34' E 120°18'0 0.0
2016-Feb-11 05:28N 22°34' E 120°18'0 0.0
2016-Feb-11 04:22N 22°34' E 120°18'0 0.0
2016-Feb-11 03:28N 22°34' E 120°18'0 0.0
2016-Feb-11 02:28N 22°34' E 120°18'0 0.0
2016-Feb-11 01:28N 22°34' E 120°18'0 0.0
2016-Feb-11 00:28N 22°34' E 120°18'0 0.3
2016-Feb-10 23:33N 22°34' E 120°19'5 5.0
2016-Feb-10 22:33N 22°32' E 120°14'1414.0
2016-Feb-10 21:33N 22°30' E 119°59'2019.5
2016-Feb-10 20:33N 22°28' E 119°38'27419.6
2016-Feb-10 06:33N 22°18' E 114°41'2813.8
2016-Feb-10 04:31N 22°34' E 114°16'0 0.2
2016-Feb-10 03:25N 22°34' E 114°16'0 0.0
2016-Feb-10 02:31N 22°34' E 114°16'0 0.0
2016-Feb-10 01:19N 22°34' E 114°16'0 0.0
2016-Feb-10 00:07N 22°34' E 114°16'0 0.0
2016-Feb-09 23:31N 22°34' E 114°16'0 0.0
2016-Feb-09 22:13N 22°34' E 114°16'0 0.0
2016-Feb-09 21:31N 22°34' E 114°16'0 0.0
2016-Feb-09 20:31N 22°34' E 114°16'0 0.0
2016-Feb-09 16:31N 22°34' E 114°16'0 0.0
2016-Feb-09 15:25N 22°34' E 114°16'0 0.0
2016-Feb-09 14:31N 22°34' E 114°16'0 0.0
2016-Feb-09 13:19N 22°34' E 114°16'0 0.0
2016-Feb-09 10:13N 22°34' E 114°16'0 0.0
2016-Feb-09 08:25N 22°34' E 114°16'0 0.0
2016-Feb-09 06:13N 22°34' E 114°16'0 0.2
2016-Feb-09 05:33N 22°34' E 114°16'15 7.5
2016-Feb-09 03:32N 22°25' E 114°29'1110.9
2016-Feb-09 02:31N 22°14' E 114°29'1312.8
2016-Feb-09 01:31N 22°07' E 114°17'1410.8
2016-Feb-09 00:14N 22°16' E 114°06'4 6.3
2016-Feb-08 23:33N 22°21' E 114°07'0 0.3
2016-Feb-08 22:30N 22°21' E 114°07'0 0.0
2016-Feb-08 21:33N 22°21' E 114°07'0 0.0
2016-Feb-08 20:33N 22°21' E 114°07'0 0.0
2016-Feb-08 19:33N 22°21' E 114°07'0 0.0
2016-Feb-08 18:33N 22°21' E 114°07'0 0.0
2016-Feb-08 17:24N 22°21' E 114°07'0 0.0
2016-Feb-08 16:15N 22°21' E 114°07'0 0.0
2016-Feb-08 13:33N 22°21' E 114°07'0 0.0
2016-Feb-08 12:12N 22°21' E 114°07'0 0.0
2016-Feb-08 10:21N 22°21' E 114°07'0 0.0
2016-Feb-08 09:24N 22°21' E 114°07'0 0.0
2016-Feb-08 08:24N 22°21' E 114°07'0 0.0
2016-Feb-08 07:30N 22°21' E 114°07'0 0.0
2016-Feb-08 06:18N 22°21' E 114°07'0 0.0
2016-Feb-08 05:33N 22°21' E 114°07'0 0.0
2016-Feb-08 04:33N 22°21' E 114°07'0 0.0
2016-Feb-08 03:33N 22°21' E 114°07'0 0.0
2016-Feb-08 02:33N 22°21' E 114°07'1 0.6
2016-Feb-08 01:33N 22°20' E 114°07'9 8.6
2016-Feb-08 00:33N 22°21' E 113°58'9 9.2
2016-Feb-07 23:33N 22°28' E 113°52'4 1.9
2016-Feb-07 21:21N 22°32' E 113°51'0 0.0
2016-Feb-07 20:33N 22°32' E 113°51'0 0.0
2016-Feb-07 19:33N 22°32' E 113°51'0 0.0
2016-Feb-07 17:33N 22°32' E 113°51'0 0.0
2016-Feb-07 16:21N 22°32' E 113°51'0 0.0
2016-Feb-07 00:19N 22°32' E 113°51'15 5.3
2016-Feb-06 21:27N 22°21' E 114°02'1112.1
2016-Feb-06 20:33N 22°13' E 114°10'6 6.4
2016-Feb-06 19:33N 22°08' E 114°15'1111.3
2016-Feb-06 18:33N 22°09' E 114°27'20511.3
2016-Feb-06 00:27N 23°36' E 117°49'1516.5
2016-Feb-05 23:32N 23°47' E 118°00'1616.3
2016-Feb-05 22:33N 23°58' E 118°14'1514.8
2016-Feb-05 21:33N 24°11' E 118°22'1414.0
2016-Feb-05 20:33N 24°20' E 118°10'1111.2
2016-Feb-05 19:33N 24°27' E 118°00'0 0.3
2016-Feb-05 18:26N 24°27' E 118°00'0 0.0
2016-Feb-05 17:33N 24°27' E 118°00'0 0.0
2016-Feb-05 16:33N 24°27' E 118°00'0 0.0
2016-Feb-05 15:31N 24°27' E 118°00'0 0.0
2016-Feb-05 14:34N 24°27' E 118°00'0 0.0
2016-Feb-05 13:33N 24°27' E 118°00'0 0.0
2016-Feb-05 12:33N 24°27' E 118°00'0 0.0
2016-Feb-05 11:33N 24°27' E 118°00'0 0.1
2016-Feb-05 10:34N 24°27' E 118°00'0 0.0
2016-Feb-05 09:33N 24°27' E 118°00'0 0.1
2016-Feb-05 08:33N 24°27' E 118°00'0 0.0
2016-Feb-05 07:33N 24°27' E 118°00'0 0.0
2016-Feb-05 06:33N 24°27' E 118°00'0 0.1
2016-Feb-05 05:33N 24°27' E 118°00'0 0.1
2016-Feb-05 04:33N 24°27' E 118°00'0 0.1
2016-Feb-05 03:33N 24°27' E 118°00'0 0.1
2016-Feb-05 02:34N 24°27' E 118°00'0 0.0
2016-Feb-05 01:33N 24°27' E 118°00'0 0.0
2016-Feb-05 00:33N 24°27' E 118°00'0 0.0
2016-Feb-04 23:33N 24°27' E 118°00'8 8.3
2016-Feb-04 22:33N 24°22' E 118°08'10 9.8
2016-Feb-04 21:33N 24°15' E 118°15'6 6.3
2016-Feb-04 20:33N 24°14' E 118°22'2 2.1
2016-Feb-04 19:32N 24°12' E 118°20'3 1.1
2016-Feb-04 16:32N 24°14' E 118°23'2 1.9
2016-Feb-04 15:19N 24°12' E 118°23'9812.6
2016-Feb-04 07:33N 22°60' E 119°35'1716.5
2016-Feb-04 06:32N 22°50' E 119°50'1616.1
2016-Feb-04 05:33N 22°41' E 120°03'8 8.3
2016-Feb-04 04:33N 22°33' E 120°08'1 1.5
2016-Feb-04 03:33N 22°35' E 120°07'4 4.4
2016-Feb-04 02:33N 22°33' E 120°11'8 7.6
2016-Feb-04 01:33N 22°33' E 120°20'2 1.5
2016-Feb-04 00:29N 22°34' E 120°18'0 0.0
2016-Feb-03 23:23N 22°34' E 120°18'0 0.0
2016-Feb-03 22:23N 22°34' E 120°18'0 0.1
2016-Feb-03 21:29N 22°34' E 120°18'0 0.1
2016-Feb-03 20:29N 22°34' E 120°18'0 0.0
2016-Feb-03 19:29N 22°34' E 120°18'0 0.0
2016-Feb-03 18:29N 22°34' E 120°18'0 0.0
2016-Feb-03 17:23N 22°34' E 120°18'0 0.0
2016-Feb-03 16:29N 22°34' E 120°18'0 0.0
2016-Feb-03 15:29N 22°34' E 120°18'0 0.0
2016-Feb-03 14:29N 22°34' E 120°18'0 0.0
2016-Feb-03 13:27N 22°34' E 120°18'2 2.2
2016-Feb-03 12:34N 22°33' E 120°17'7 7.1
2016-Feb-03 11:33N 22°27' E 120°12'1211.7
2016-Feb-03 10:34N 22°16' E 120°14'  

Dump ship's entire track history